Time;durP1;ratioP1;P1;durP2;ratioP2;P2;SDS_P1;SDS_P2;PMS_P1;PMS_P2;Temp;Humidity;BMP_temperature;BMP_pressure;BME280_temperature;BME280_humidity;BME280_pressure;Samples;Min_cycle;Max_cycle;Signal;HPM_P1;HPM_P2
2021/05/15 00:01:30;;;;;;;1.58;1.02;;;8.80;99.90;;;;;;6242845;23;20075;-92
2021/05/15 00:03:56;;;;;;;1.45;1.20;;;8.80;99.90;;;;;;6217564;23;20090;-92
2021/05/15 00:06:25;;;;;;;1.70;1.10;;;8.80;99.90;;;;;;6242525;23;20016;-93
2021/05/15 00:08:52;;;;;;;2.53;1.20;;;8.80;99.90;;;;;;6242880;23;20011;-92
2021/05/15 00:11:18;;;;;;;1.05;0.95;;;8.80;99.90;;;;;;6244462;23;20234;-93
2021/05/15 00:13:45;;;;;;;1.40;1.30;;;8.70;99.90;;;;;;6219717;23;20044;-92
2021/05/15 00:16:11;;;;;;;1.40;1.00;;;8.70;99.90;;;;;;6244781;23;20055;-93
2021/05/15 00:18:40;;;;;;;3.85;1.20;;;8.70;99.90;;;;;;6242714;23;20091;-92
2021/05/15 00:21:08;;;;;;;1.10;1.10;;;8.80;99.90;;;;;;6245695;23;20012;-92
2021/05/15 00:23:37;;;;;;;2.15;0.98;;;8.70;99.90;;;;;;6244599;23;20012;-92
2021/05/15 00:26:03;;;;;;;3.40;1.30;;;8.70;99.90;;;;;;6194299;23;20086;-90
2021/05/15 00:28:32;;;;;;;1.58;1.05;;;8.70;99.90;;;;;;6244592;23;20414;-91
2021/05/15 00:30:57;;;;;;;3.72;1.20;;;8.70;99.90;;;;;;6244641;23;20284;-92
2021/05/15 00:33:25;;;;;;;2.25;1.23;;;8.60;99.90;;;;;;6245272;23;20015;-90
2021/05/15 00:35:51;;;;;;;1.85;1.23;;;8.60;99.90;;;;;;6243918;23;20012;-91
2021/05/15 00:38:17;;;;;;;1.70;1.20;;;8.50;99.90;;;;;;6244549;23;20054;-92
2021/05/15 00:40:50;;;;;;;1.48;0.90;;;8.50;99.90;;;;;;6244004;23;20347;-91
2021/05/15 00:43:18;;;;;;;2.75;1.42;;;8.50;99.90;;;;;;6219026;23;20008;-91
2021/05/15 00:45:48;;;;;;;1.13;1.05;;;8.40;99.90;;;;;;6244223;23;20614;-91
2021/05/15 00:48:14;;;;;;;2.38;1.40;;;8.40;99.90;;;;;;6243785;23;20022;-92
2021/05/15 00:50:41;;;;;;;2.55;1.13;;;8.40;99.90;;;;;;6245248;23;20082;-89
2021/05/15 00:53:08;;;;;;;1.80;1.30;;;8.30;99.90;;;;;;6244552;23;20012;-89
2021/05/15 00:55:35;;;;;;;2.35;1.58;;;8.30;99.90;;;;;;6244350;23;20073;-91
2021/05/15 00:58:02;;;;;;;2.47;1.38;;;8.20;99.90;;;;;;6244058;23;20016;-90
2021/05/15 01:00:28;;;;;;;1.95;1.30;;;8.10;99.90;;;;;;6243922;23;20095;-91
2021/05/15 01:02:54;;;;;;;1.20;1.10;;;8.10;99.90;;;;;;6243744;23;20019;-90
2021/05/15 01:05:21;;;;;;;1.73;1.52;;;8.00;99.90;;;;;;6244038;23;20028;-86
2021/05/15 01:07:47;;;;;;;3.03;1.35;;;7.90;99.90;;;;;;6243819;23;20016;-91
2021/05/15 01:10:14;;;;;;;1.35;1.25;;;7.90;99.90;;;;;;6244260;23;20063;-91
2021/05/15 01:12:54;;;;;;;2.83;1.30;;;7.80;99.90;;;;;;6244168;23;20020;-82
2021/05/15 01:15:24;;;;;;;1.40;1.30;;;7.80;99.90;;;;;;6243571;23;20031;-91
2021/05/15 01:17:57;;;;;;;3.00;1.40;;;7.80;99.90;;;;;;6244217;23;20063;-91
2021/05/15 01:20:28;;;;;;;3.75;1.58;;;7.70;99.90;;;;;;6243276;23;20050;-90
2021/05/15 01:22:58;;;;;;;2.58;1.25;;;7.70;99.90;;;;;;6243757;23;20012;-91
2021/05/15 01:25:27;;;;;;;2.20;1.40;;;7.70;99.90;;;;;;6244852;23;20019;-89
2021/05/15 01:27:53;;;;;;;2.25;1.40;;;7.60;99.90;;;;;;6243742;23;20036;-90
2021/05/15 01:30:20;;;;;;;4.20;1.40;;;7.50;99.90;;;;;;6244040;23;20031;-91
2021/05/15 01:32:47;;;;;;;1.92;1.40;;;7.50;99.90;;;;;;6218070;23;20364;-91
2021/05/15 01:35:17;;;;;;;3.05;1.60;;;7.40;99.90;;;;;;6243967;23;20023;-91
2021/05/15 01:37:43;;;;;;;1.85;1.48;;;7.30;99.90;;;;;;6245314;23;20039;-91
2021/05/15 01:40:10;;;;;;;2.50;1.42;;;7.30;99.90;;;;;;6193926;23;20004;-90
2021/05/15 01:42:36;;;;;;;3.63;1.77;;;7.30;99.90;;;;;;6243800;23;20039;-90
2021/05/15 01:45:05;;;;;;;1.60;1.48;;;7.30;99.90;;;;;;6243706;23;20534;-91
2021/05/15 01:47:35;;;;;;;3.42;1.60;;;7.30;99.90;;;;;;6244822;23;20035;-91
2021/05/15 01:50:01;;;;;;;2.85;2.05;;;7.30;99.90;;;;;;6243864;23;20060;-90
2021/05/15 01:52:27;;;;;;;3.00;1.45;;;7.30;99.90;;;;;;6244271;23;20004;-93
2021/05/15 01:54:52;;;;;;;3.42;1.75;;;7.20;99.90;;;;;;6243524;23;20008;-92
2021/05/15 01:57:18;;;;;;;4.07;1.73;;;7.30;99.90;;;;;;6243227;23;20091;-90
2021/05/15 01:59:44;;;;;;;3.67;1.88;;;7.30;99.90;;;;;;6242492;23;20012;-90
2021/05/15 02:02:09;;;;;;;1.70;1.60;;;7.30;99.90;;;;;;6243339;23;20069;-90
2021/05/15 02:04:40;;;;;;;1.80;1.67;;;7.40;99.90;;;;;;6244899;23;20019;-91
2021/05/15 02:07:06;;;;;;;2.97;1.73;;;7.40;99.90;;;;;;6242991;23;20094;-90
2021/05/15 02:09:32;;;;;;;3.05;1.85;;;7.40;99.90;;;;;;6243583;23;20017;-90
2021/05/15 02:12:01;;;;;;;4.07;1.48;;;7.40;99.90;;;;;;6218042;23;20038;-88
2021/05/15 02:14:26;;;;;;;3.45;1.60;;;7.30;99.90;;;;;;6242258;23;20020;-89
2021/05/15 02:16:52;;;;;;;2.33;1.88;;;7.30;99.90;;;;;;6243248;23;20111;-90
2021/05/15 02:19:18;;;;;;;2.28;1.60;;;7.30;99.90;;;;;;6243223;23;20043;-89
2021/05/15 02:21:44;;;;;;;3.58;1.70;;;7.20;99.90;;;;;;6242734;23;20004;-89
2021/05/15 02:24:11;;;;;;;3.30;2.15;;;7.10;99.90;;;;;;6218137;23;20016;-88
2021/05/15 02:26:39;;;;;;;3.58;1.77;;;7.00;99.90;;;;;;6243428;23;20023;-89
2021/05/15 02:29:08;;;;;;;3.72;2.00;;;6.90;99.90;;;;;;6242374;23;20020;-88
2021/05/15 02:31:33;;;;;;;3.70;2.00;;;6.90;99.90;;;;;;6243443;23;20104;-91
2021/05/15 02:33:59;;;;;;;3.45;2.40;;;6.90;99.90;;;;;;6242563;23;20040;-91
2021/05/15 02:36:25;;;;;;;3.28;2.10;;;6.80;99.90;;;;;;6242982;23;20316;-90
2021/05/15 02:38:53;;;;;;;3.78;2.03;;;6.80;99.90;;;;;;6243125;23;20013;-91
2021/05/15 02:41:23;;;;;;;2.15;1.75;;;6.90;99.90;;;;;;6248075;23;20004;-90
2021/05/15 02:43:49;;;;;;;2.22;1.80;;;6.80;99.90;;;;;;6223504;23;20331;-90
2021/05/15 02:46:15;;;;;;;3.90;2.17;;;6.80;99.90;;;;;;6254949;22;20020;-89
2021/05/15 02:48:40;;;;;;;2.38;2.00;;;6.80;99.90;;;;;;6223851;23;20020;-83
2021/05/15 02:51:08;;;;;;;3.85;2.35;;;6.80;99.90;;;;;;6248256;23;20051;-89
2021/05/15 02:53:34;;;;;;;2.45;2.00;;;6.80;99.90;;;;;;6244534;23;20016;-91
2021/05/15 02:56:00;;;;;;;2.65;1.90;;;6.70;99.90;;;;;;6219239;23;20050;-87
2021/05/15 02:58:26;;;;;;;5.15;2.30;;;6.70;99.90;;;;;;6242438;23;20027;-90
2021/05/15 03:00:52;;;;;;;3.20;2.15;;;6.70;99.90;;;;;;6245656;23;20016;-91
2021/05/15 03:03:18;;;;;;;3.08;1.80;;;6.70;99.90;;;;;;6243934;23;20016;-92
2021/05/15 03:05:47;;;;;;;3.85;2.20;;;6.60;99.90;;;;;;6242657;23;20423;-89
2021/05/15 03:08:12;;;;;;;4.65;2.42;;;6.60;99.90;;;;;;6242127;23;20008;-91
2021/05/15 03:10:38;;;;;;;4.38;2.05;;;6.60;99.90;;;;;;6218086;23;20434;-90
2021/05/15 03:13:04;;;;;;;4.47;2.28;;;6.60;99.90;;;;;;6241352;23;20093;-90
2021/05/15 03:15:32;;;;;;;3.05;2.20;;;6.60;99.90;;;;;;6242816;23;20012;-91
2021/05/15 03:17:57;;;;;;;4.25;2.05;;;6.60;99.90;;;;;;6242681;23;20068;-91
2021/05/15 03:20:25;;;;;;;2.95;2.10;;;6.60;99.90;;;;;;6217230;23;20043;-89
2021/05/15 03:22:52;;;;;;;2.55;1.90;;;6.60;99.90;;;;;;6243964;23;20023;-90
2021/05/15 03:25:19;;;;;;;3.85;1.98;;;6.60;99.90;;;;;;6217636;23;20453;-91
2021/05/15 03:27:45;;;;;;;2.80;1.80;;;6.60;99.90;;;;;;6241640;23;20035;-90
2021/05/15 03:30:12;;;;;;;2.67;1.75;;;6.70;99.90;;;;;;6242700;23;20260;-92
2021/05/15 03:32:40;;;;;;;3.05;1.70;;;6.70;99.90;;;;;;6242403;23;20012;-90
2021/05/15 03:35:10;;;;;;;1.60;1.50;;;6.80;99.90;;;;;;6242847;23;20394;-91
2021/05/15 03:37:37;;;;;;;2.83;1.45;;;6.90;99.90;;;;;;6243795;23;20004;-90
2021/05/15 03:40:04;;;;;;;2.85;1.85;;;6.90;99.90;;;;;;6247336;23;20004;-90
2021/05/15 03:42:30;;;;;;;3.72;1.58;;;6.90;99.90;;;;;;6248697;23;20391;-89
2021/05/15 03:44:56;;;;;;;1.83;1.67;;;7.00;99.90;;;;;;6227695;23;19996;-88
2021/05/15 03:47:22;;;;;;;2.58;1.80;;;7.00;99.90;;;;;;6251975;23;20012;-91
2021/05/15 03:49:48;;;;;;;2.38;1.50;;;7.00;99.90;;;;;;6250702;23;20034;-90
2021/05/15 03:52:14;;;;;;;2.13;1.90;;;7.00;99.90;;;;;;6243720;23;20020;-89
2021/05/15 03:54:40;;;;;;;4.45;1.88;;;7.00;99.90;;;;;;6242416;23;20032;-86
2021/05/15 03:57:06;;;;;;;2.65;2.00;;;7.00;99.90;;;;;;6215833;23;20095;-90
2021/05/15 03:59:32;;;;;;;3.08;1.80;;;7.00;99.90;;;;;;6217465;23;20079;-90
2021/05/15 04:01:58;;;;;;;3.97;2.03;;;7.00;99.90;;;;;;6242558;23;20411;-90
2021/05/15 04:04:27;;;;;;;3.28;1.83;;;7.00;99.90;;;;;;6244783;23;20019;-89
2021/05/15 04:06:55;;;;;;;2.88;2.03;;;7.00;99.90;;;;;;6218035;23;20322;-90
2021/05/15 04:09:21;;;;;;;3.03;1.60;;;7.00;99.90;;;;;;6242113;23;20012;-89
2021/05/15 04:11:47;;;;;;;3.47;2.17;;;7.00;99.90;;;;;;6216931;23;20364;-92
2021/05/15 04:19:10;;;;;;;1.90;1.60;;;7.10;99.90;;;;;;6245351;23;20071;-91
2021/05/15 04:21:36;;;;;;;2.85;1.85;;;7.10;99.90;;;;;;6244141;23;20000;-90
2021/05/15 04:24:02;;;;;;;1.70;1.60;;;7.10;99.90;;;;;;6242498;23;20024;-90
2021/05/15 04:26:27;;;;;;;2.13;1.90;;;7.10;99.90;;;;;;6242193;23;20070;-90
2021/05/15 04:28:53;;;;;;;3.97;2.17;;;7.20;99.90;;;;;;6192196;23;20020;-91
2021/05/15 04:31:19;;;;;;;2.63;1.80;;;7.10;99.90;;;;;;6192133;23;20074;-91
2021/05/15 04:33:45;;;;;;;3.30;1.60;;;7.20;99.90;;;;;;6242993;23;20014;-91
2021/05/15 04:36:12;;;;;;;2.78;1.70;;;7.20;99.90;;;;;;6242697;23;20054;-91
2021/05/15 04:38:37;;;;;;;6.53;2.13;;;7.30;99.90;;;;;;6242214;23;20091;-90
2021/05/15 04:41:03;;;;;;;2.13;1.50;;;7.40;99.90;;;;;;6241964;23;20623;-89
2021/05/15 04:43:29;;;;;;;3.10;1.38;;;7.50;99.90;;;;;;6241509;23;20095;-90
2021/05/15 04:45:59;;;;;;;1.67;1.48;;;7.50;99.90;;;;;;6244015;23;20074;-92
2021/05/15 04:48:25;;;;;;;1.60;1.50;;;7.60;99.90;;;;;;6192381;23;20016;-91
2021/05/15 04:50:51;;;;;;;2.38;1.33;;;7.60;99.90;;;;;;6241772;23;20146;-91
2021/05/15 04:53:17;;;;;;;3.42;1.92;;;7.70;99.90;;;;;;6241922;23;20012;-90
2021/05/15 04:55:43;;;;;;;3.78;1.48;;;7.70;99.90;;;;;;6241701;23;20012;-91
2021/05/15 04:58:09;;;;;;;2.60;1.27;;;7.70;99.90;;;;;;6218573;23;20012;-91
2021/05/15 05:00:35;;;;;;;5.13;1.50;;;7.80;99.90;;;;;;6243423;23;20012;-89
2021/05/15 05:03:01;;;;;;;2.85;1.58;;;7.80;99.90;;;;;;6243657;23;20047;-88
2021/05/15 05:05:29;;;;;;;2.55;1.55;;;7.90;99.90;;;;;;6247344;23;20087;-90
2021/05/15 05:07:55;;;;;;;1.30;1.20;;;8.10;99.90;;;;;;6244783;23;20020;-90
2021/05/15 05:10:23;;;;;;;2.10;1.50;;;8.30;99.90;;;;;;6243971;23;20096;-90
2021/05/15 05:12:49;;;;;;;2.92;1.40;;;8.50;99.90;;;;;;6244100;23;20383;-90
2021/05/15 05:15:15;;;;;;;2.05;1.20;;;8.60;99.90;;;;;;6244930;22;20022;-92
2021/05/15 05:17:41;;;;;;;2.85;1.10;;;8.70;99.90;;;;;;6246319;23;20008;-89
2021/05/15 05:20:08;;;;;;;1.38;1.10;;;8.80;99.90;;;;;;6219546;23;20019;-90
2021/05/15 05:22:33;;;;;;;1.05;1.05;;;8.90;99.90;;;;;;6245619;23;20047;-91
2021/05/15 05:25:02;;;;;;;2.30;1.13;;;8.90;99.90;;;;;;6219840;23;20016;-91
2021/05/15 05:27:30;;;;;;;1.17;1.08;;;9.00;99.90;;;;;;6246241;23;20012;-89
2021/05/15 05:30:00;;;;;;;4.25;0.98;;;9.20;99.90;;;;;;6220222;23;20047;-89
2021/05/15 05:32:31;;;;;;;1.10;1.00;;;9.20;99.90;;;;;;6221296;23;20083;-91
2021/05/15 05:35:02;;;;;;;1.02;0.93;;;9.20;99.90;;;;;;6248052;23;20016;-91
2021/05/15 05:37:30;;;;;;;1.52;1.05;;;9.20;99.90;;;;;;6244835;23;20008;-91
2021/05/15 05:39:56;;;;;;;2.15;0.90;;;9.20;99.90;;;;;;6244130;23;20375;-88
2021/05/15 05:42:21;;;;;;;0.95;0.82;;;9.20;99.90;;;;;;6246889;23;20016;-87
2021/05/15 05:44:47;;;;;;;1.38;1.00;;;9.10;99.90;;;;;;6219329;23;20035;-90
2021/05/15 05:47:13;;;;;;;1.08;0.90;;;9.10;99.90;;;;;;6244321;23;20039;-90
2021/05/15 05:49:39;;;;;;;2.60;1.42;;;9.00;99.90;;;;;;6243401;23;20072;-93
2021/05/15 05:52:05;;;;;;;1.63;1.42;;;8.90;99.90;;;;;;6242633;23;20083;-88
2021/05/15 05:54:33;;;;;;;4.32;1.27;;;8.90;99.90;;;;;;6247655;23;20035;-91
2021/05/15 05:56:58;;;;;;;2.40;1.25;;;8.90;99.90;;;;;;6224096;23;20042;-89
2021/05/15 05:59:26;;;;;;;3.53;1.30;;;9.00;99.90;;;;;;6247235;23;20521;-92
2021/05/15 06:01:52;;;;;;;2.17;0.93;;;9.20;99.90;;;;;;6251108;23;20012;-91
2021/05/15 06:04:20;;;;;;;3.80;1.10;;;9.40;99.90;;;;;;6250264;23;20020;-90
2021/05/15 06:06:46;;;;;;;4.65;1.40;;;9.50;99.90;;;;;;6249372;23;20012;-90
2021/05/15 06:09:17;;;;;;;3.70;1.23;;;9.70;99.90;;;;;;6224598;23;20154;-90
2021/05/15 06:11:48;;;;;;;2.07;1.07;;;10.20;99.90;;;;;;6253738;23;20051;-90
2021/05/15 06:14:14;;;;;;;1.77;0.90;;;10.60;99.90;;;;;;6253785;23;20267;-91
2021/05/15 06:16:40;;;;;;;0.90;0.90;;;10.70;99.90;;;;;;6228730;23;20194;-91
2021/05/15 06:19:05;;;;;;;6.15;1.00;;;10.90;99.90;;;;;;6249080;23;20369;-90
2021/05/15 06:21:31;;;;;;;1.15;0.82;;;10.80;99.90;;;;;;6247635;23;20010;-91
2021/05/15 06:24:00;;;;;;;1.15;1.05;;;10.70;99.90;;;;;;6249086;23;20008;-91
2021/05/15 06:26:25;;;;;;;1.65;0.75;;;11.00;99.90;;;;;;6225361;23;20335;-90
2021/05/15 06:28:51;;;;;;;1.35;0.88;;;11.40;99.90;;;;;;6248260;23;20055;-91
2021/05/15 06:31:17;;;;;;;1.38;0.98;;;11.50;99.90;;;;;;6246739;23;20008;-93
2021/05/15 06:33:45;;;;;;;1.00;0.70;;;11.70;99.90;;;;;;6246636;23;20018;-91
2021/05/15 06:36:11;;;;;;;2.00;1.00;;;11.90;99.90;;;;;;6246150;23;20138;-94
2021/05/15 06:38:36;;;;;;;1.05;0.80;;;12.20;99.90;;;;;;6246573;23;20412;-93
2021/05/15 06:41:05;;;;;;;1.52;0.80;;;12.50;99.90;;;;;;6220748;23;20043;-91
2021/05/15 06:43:31;;;;;;;1.63;0.73;;;12.50;99.90;;;;;;6248182;23;20131;-92
2021/05/15 06:46:00;;;;;;;4.45;0.88;;;12.50;99.90;;;;;;6248689;23;20023;-93
2021/05/15 06:48:28;;;;;;;1.02;0.80;;;12.40;99.90;;;;;;6243975;23;20024;-93
2021/05/15 06:50:54;;;;;;;1.63;1.17;;;12.30;99.90;;;;;;6246219;23;20082;-91
2021/05/15 06:53:20;;;;;;;2.03;1.02;;;12.10;99.90;;;;;;6244711;23;20371;-91
2021/05/15 06:55:45;;;;;;;3.10;0.85;;;11.70;99.90;;;;;;6219874;23;20151;-90
2021/05/15 06:58:13;;;;;;;0.82;0.80;;;11.60;99.90;;;;;;6222041;23;20109;-91
2021/05/15 07:00:51;;;;;;;1.10;0.82;;;11.60;99.90;;;;;;6251560;23;20411;-93
2021/05/15 07:03:19;;;;;;;2.97;1.58;;;11.50;99.90;;;;;;6250397;23;20027;-93
2021/05/15 07:05:45;;;;;;;3.17;1.10;;;11.50;99.90;;;;;;6243468;23;20012;-90
2021/05/15 07:08:10;;;;;;;2.58;1.10;;;11.30;99.90;;;;;;6244205;23;20067;-92
2021/05/15 07:10:37;;;;;;;2.13;1.10;;;11.20;99.90;;;;;;6218491;23;20083;-92
2021/05/15 07:13:05;;;;;;;1.25;1.10;;;11.10;99.90;;;;;;6242489;23;20012;-92
2021/05/15 07:15:30;;;;;;;2.95;0.88;;;11.10;99.90;;;;;;6244175;23;20024;-92
2021/05/15 07:17:58;;;;;;;2.33;1.08;;;11.20;99.90;;;;;;6244056;23;20004;-92
2021/05/15 07:20:24;;;;;;;3.20;1.02;;;11.30;99.90;;;;;;6218156;23;20539;-92
2021/05/15 07:23:07;;;;;;;2.13;0.90;;;11.40;99.90;;;;;;6192856;23;20031;-92
2021/05/15 07:25:34;;;;;;;1.00;0.90;;;11.50;99.90;;;;;;6247164;22;20111;-90
2021/05/15 07:27:59;;;;;;;2.78;0.82;;;11.50;99.90;;;;;;6246151;23;20012;-92
2021/05/15 07:30:44;;;;;;;1.70;0.90;;;11.80;99.90;;;;;;6247803;23;20307;-91
2021/05/15 07:33:12;;;;;;;2.42;0.80;;;12.00;99.90;;;;;;6244583;23;20008;-90
2021/05/15 07:35:39;;;;;;;2.35;0.90;;;12.10;99.90;;;;;;6245713;23;20043;-92
2021/05/15 07:38:06;;;;;;;3.22;0.80;;;12.40;99.90;;;;;;6249202;23;20008;-90
2021/05/15 07:40:33;;;;;;;1.27;0.95;;;12.40;99.90;;;;;;6221236;23;20087;-92
2021/05/15 07:46:46;;;;;;;4.55;1.02;;;12.60;99.90;;;;;;6256529;23;20040;-91
2021/05/15 07:49:17;;;;;;;1.58;1.02;;;12.50;99.90;;;;;;6258275;23;20020;-91
2021/05/15 07:51:47;;;;;;;1.27;0.93;;;12.40;99.90;;;;;;6214622;23;20036;-90
2021/05/15 07:54:15;;;;;;;1.25;1.00;;;12.40;99.90;;;;;;6253967;23;20020;-91
2021/05/15 07:56:44;;;;;;;3.72;0.95;;;12.30;99.90;;;;;;6221442;23;20008;-91
2021/05/15 07:59:10;;;;;;;1.15;0.90;;;12.20;99.90;;;;;;6247401;23;20015;-91
2021/05/15 08:01:35;;;;;;;3.45;0.88;;;12.30;99.90;;;;;;6244966;23;20451;-91
2021/05/15 08:04:02;;;;;;;3.15;1.25;;;12.40;99.90;;;;;;6246177;23;20734;-89
2021/05/15 08:06:28;;;;;;;1.58;1.17;;;12.40;99.90;;;;;;6247468;23;20015;-91
2021/05/15 08:08:57;;;;;;;1.58;1.00;;;12.50;99.90;;;;;;6244768;23;20005;-93
2021/05/15 08:11:36;;;;;;;;;;;;;;;;;;;;;
2021/05/15 08:14:06;;;;;;;2.78;1.20;;;12.70;99.90;;;;;;6246243;23;20052;-91
2021/05/15 08:16:35;;;;;;;1.85;0.93;;;12.50;99.90;;;;;;6244968;23;20284;-92
2021/05/15 08:19:04;;;;;;;3.10;1.00;;;12.40;99.90;;;;;;6243999;23;20012;-91
2021/05/15 08:21:31;;;;;;;1.90;0.90;;;12.30;99.90;;;;;;6251385;23;20111;-91
2021/05/15 08:23:57;;;;;;;2.15;1.10;;;12.30;99.90;;;;;;6253421;23;20008;-92
2021/05/15 08:26:26;;;;;;;2.00;0.75;;;12.60;99.90;;;;;;6226538;23;20008;-91
2021/05/15 08:28:53;;;;;;;1.98;0.98;;;12.80;99.90;;;;;;6245409;23;20012;-92
2021/05/15 08:31:19;;;;;;;2.42;0.80;;;13.10;99.90;;;;;;6245123;23;20004;-93
2021/05/15 08:33:48;;;;;;;5.78;1.08;;;13.60;99.90;;;;;;6248235;23;20099;-93
2021/05/15 08:36:18;;;;;;;2.28;1.00;;;13.50;99.90;;;;;;6246573;22;20011;-92
2021/05/15 08:38:44;;;;;;;5.55;1.10;;;13.60;99.90;;;;;;6244163;23;20020;-92
2021/05/15 08:41:10;;;;;;;2.58;0.98;;;13.60;99.50;;;;;;6220086;23;20013;-91
2021/05/15 08:43:41;;;;;;;0.90;0.90;;;13.80;99.50;;;;;;6246306;23;20087;-92
2021/05/15 08:46:13;;;;;;;4.35;1.00;;;14.10;96.80;;;;;;6244180;23;20364;-92
2021/05/15 08:48:43;;;;;;;2.22;1.00;;;14.30;96.20;;;;;;6245241;23;20012;-92
2021/05/15 08:51:11;;;;;;;1.30;1.05;;;14.30;94.40;;;;;;6244610;23;20020;-92
2021/05/15 08:53:40;;;;;;;2.63;1.50;;;14.20;94.30;;;;;;6244046;23;20019;-92
2021/05/15 08:56:10;;;;;;;3.95;1.20;;;14.40;94.90;;;;;;6244143;23;20099;-93
2021/05/15 08:58:39;;;;;;;2.08;0.95;;;14.70;93.60;;;;;;6243887;23;20019;-92
2021/05/15 09:01:14;;;;;;;2.17;0.95;;;14.60;91.90;;;;;;6244615;23;20043;-91
2021/05/15 09:03:42;;;;;;;3.28;1.05;;;14.90;91.30;;;;;;6244946;23;20054;-91
2021/05/15 09:06:09;;;;;;;3.22;1.00;;;14.70;90.30;;;;;;6244547;23;20078;-92
2021/05/15 09:08:37;;;;;;;2.55;1.08;;;14.70;92.20;;;;;;6243781;23;20020;-93
2021/05/15 09:11:05;;;;;;;4.60;0.90;;;15.00;92.00;;;;;;6219768;23;20051;-89
2021/05/15 09:13:32;;;;;;;1.95;1.15;;;15.00;88.60;;;;;;6244381;23;20024;-90
2021/05/15 09:16:04;;;;;;;4.00;1.20;;;14.90;90.70;;;;;;6243445;23;20340;-90
2021/05/15 09:18:40;;;;;;;4.30;1.20;;;14.90;90.70;;;;;;6242375;23;20058;-90
2021/05/15 09:21:14;;;;;;;2.08;0.90;;;15.40;90.30;;;;;;6219532;23;20498;-90
2021/05/15 09:23:46;;;;;;;1.13;0.70;;;16.00;86.00;;;;;;6244369;23;20016;-91
2021/05/15 09:26:19;;;;;;;6.38;0.90;;;16.00;83.50;;;;;;6244778;23;20020;-92
2021/05/15 09:28:57;;;;;;;1.73;1.00;;;16.60;80.60;;;;;;6245477;22;20039;-90
2021/05/15 09:31:32;;;;;;;4.50;0.82;;;17.00;74.30;;;;;;6244946;23;20051;-91
2021/05/15 09:34:05;;;;;;;2.97;1.20;;;16.60;71.90;;;;;;6245865;23;20024;-89
2021/05/15 09:36:37;;;;;;;;;;;16.40;75.70;;;;;;6245003;23;20071;-91
2021/05/15 09:39:25;;;;;;;3.33;2.10;;;16.50;75.30;;;;;;6243523;23;19919;-90
2021/05/15 09:41:54;;;;;;;2.83;1.45;;;16.30;76.40;;;;;;6244322;23;20020;-89
2021/05/15 09:44:29;;;;;;;4.30;1.60;;;16.10;76.40;;;;;;6243647;23;20042;-89
2021/05/15 09:47:00;;;;;;;7.10;1.45;;;15.70;75.00;;;;;;6245760;23;20034;-91
2021/05/15 09:49:33;;;;;;;3.40;1.38;;;15.30;75.20;;;;;;6245134;23;20094;-91
2021/05/15 09:52:01;;;;;;;;;;;14.80;77.50;;;;;;6245719;23;20028;-89
2021/05/15 09:54:40;;;;;;;1.98;1.17;;;14.50;82.30;;;;;;6244696;23;19982;-89
2021/05/15 09:57:10;;;;;;;5.18;1.15;;;14.40;84.40;;;;;;6244471;23;20024;-90
2021/05/15 09:59:40;;;;;;;4.28;1.38;;;14.40;85.10;;;;;;6245688;23;20376;-90
2021/05/15 10:02:15;;;;;;;3.60;1.20;;;14.20;88.90;;;;;;6244700;23;20040;-90
2021/05/15 10:04:50;;;;;;;3.03;1.23;;;14.00;90.80;;;;;;6244109;23;20108;-89
2021/05/15 10:07:24;;;;;;;4.18;1.10;;;14.10;91.40;;;;;;6245482;22;20020;-90
2021/05/15 10:09:51;;;;;;;1.85;1.02;;;14.30;88.60;;;;;;6246247;23;20082;-90
2021/05/15 10:12:19;;;;;;;2.80;1.10;;;14.40;87.50;;;;;;6244224;23;20024;-88
2021/05/15 10:14:54;;;;;;;1.77;0.95;;;14.70;90.60;;;;;;6245014;23;20407;-91
2021/05/15 10:17:21;;;;;;;2.10;1.02;;;15.50;83.40;;;;;;6243921;23;20065;-91
2021/05/15 10:19:48;;;;;;;4.18;1.17;;;16.00;81.30;;;;;;6242010;23;20058;-90
2021/05/15 10:22:15;;;;;;;2.53;1.10;;;15.90;75.30;;;;;;6244126;23;20020;-89
2021/05/15 10:24:49;;;;;;;2.20;1.00;;;16.00;72.00;;;;;;6244563;23;20051;-87
2021/05/15 10:27:19;;;;;;;2.50;0.90;;;15.70;68.80;;;;;;6243144;23;20113;-90
2021/05/15 10:29:51;;;;;;;3.40;1.08;;;15.50;70.50;;;;;;6244694;23;20032;-91
2021/05/15 10:32:17;;;;;;;2.88;1.20;;;15.40;70.00;;;;;;6245093;23;20020;-90
2021/05/15 10:34:46;;;;;;;4.15;1.15;;;15.30;70.80;;;;;;6251615;23;20020;-88
2021/05/15 10:37:21;;;;;;;4.72;1.15;;;15.50;71.30;;;;;;6251669;23;20051;-90
2021/05/15 10:39:48;;;;;;;2.33;1.00;;;15.60;70.40;;;;;;6251152;23;20043;-88
2021/05/15 10:42:30;;;;;;;2.40;0.88;;;15.50;71.50;;;;;;6246932;23;20053;-90
2021/05/15 10:44:59;;;;;;;2.22;1.00;;;15.30;71.10;;;;;;6243604;23;20055;-89
2021/05/15 10:47:40;;;;;;;2.65;1.50;;;15.30;70.60;;;;;;6243478;23;20026;-88
2021/05/15 10:50:21;;;;;;;1.90;0.80;;;15.00;72.80;;;;;;6244659;22;20027;-88
2021/05/15 10:52:58;;;;;;;3.35;1.17;;;14.80;73.80;;;;;;6241922;23;20383;-88
2021/05/15 10:56:13;;;;;;;4.60;1.50;;;14.50;75.10;;;;;;6241239;23;20050;-89
2021/05/15 10:58:43;;;;;;;;;;;14.20;76.30;;;;;;6242035;23;20050;-90
2021/05/15 11:02:00;;;;;;;2.42;1.00;;;14.00;75.70;;;;;;6244131;23;19915;-89
2021/05/15 11:04:33;;;;;;;5.65;1.15;;;14.00;76.20;;;;;;6213060;23;20032;-89
2021/05/15 11:07:01;;;;;;;2.53;1.30;;;14.00;77.40;;;;;;6217920;23;20025;-87
2021/05/15 11:10:13;;;;;;;3.53;1.20;;;14.10;75.00;;;;;;6193804;23;20021;-88
2021/05/15 11:16:30;;;;;;;5.93;1.40;;;14.20;76.60;;;;;;6213284;23;20023;-91
2021/05/15 11:19:09;;;;;;;2.28;0.90;;;13.90;82.60;;;;;;6213131;23;20059;-90
2021/05/15 11:21:38;;;;;;;2.38;1.15;;;13.40;90.30;;;;;;6187605;23;20119;-92
2021/05/15 11:24:05;;;;;;;3.63;1.13;;;13.40;94.90;;;;;;6187878;23;20016;-87
2021/05/15 11:26:51;;;;;;;4.38;1.33;;;13.60;96.80;;;;;;6188165;23;20056;-89
2021/05/15 11:29:30;;;;;;;2.70;1.20;;;14.00;94.40;;;;;;6188057;23;20028;-89
2021/05/15 11:32:11;;;;;;;2.72;1.20;;;14.60;90.60;;;;;;6212988;23;20424;-90
2021/05/15 11:34:40;;;;;;;2.25;1.17;;;15.00;87.40;;;;;;6187728;23;20024;-90
2021/05/15 11:37:09;;;;;;;5.85;1.20;;;15.50;82.60;;;;;;6187032;23;20075;-92
2021/05/15 11:39:39;;;;;;;3.25;1.10;;;15.50;79.20;;;;;;6187939;23;20017;-92
2021/05/15 11:42:09;;;;;;;4.30;1.48;;;16.00;79.20;;;;;;6214000;23;20083;-88
2021/05/15 11:44:40;;;;;;;5.57;1.30;;;16.10;76.30;;;;;;6192844;23;20021;-87
2021/05/15 11:47:10;;;;;;;2.30;0.80;;;16.00;78.70;;;;;;6193181;23;20091;-89
2021/05/15 11:49:38;;;;;;;3.53;0.80;;;16.00;75.90;;;;;;6191037;23;20023;-88
2021/05/15 11:52:09;;;;;;;2.42;0.88;;;15.80;70.40;;;;;;6215783;23;20376;-88
2021/05/15 11:54:39;;;;;;;3.70;1.00;;;15.60;74.80;;;;;;6192031;23;20023;-90
2021/05/15 11:57:06;;;;;;;4.68;1.00;;;15.70;71.10;;;;;;6186996;23;20412;-87
2021/05/15 11:59:36;;;;;;;3.55;1.10;;;15.40;71.80;;;;;;6188270;23;20021;-91
2021/05/15 12:02:03;;;;;;;2.92;1.00;;;15.20;72.70;;;;;;6189081;23;20021;-89
2021/05/15 12:04:31;;;;;;;3.25;1.10;;;15.00;71.60;;;;;;6244077;23;20020;-89
2021/05/15 12:07:00;;;;;;;1.95;1.08;;;15.00;72.90;;;;;;6247881;23;20056;-89
2021/05/15 12:09:29;;;;;;;5.40;1.10;;;15.00;73.40;;;;;;6248184;23;20032;-89
2021/05/15 12:12:09;;;;;;;3.35;1.20;;;15.30;74.20;;;;;;6249553;23;20020;-91
2021/05/15 12:14:42;;;;;;;3.58;1.40;;;15.40;72.70;;;;;;6251008;23;20028;-90
2021/05/15 12:17:15;;;;;;;6.75;2.92;;;15.60;71.70;;;;;;6249509;23;20031;-88
2021/05/15 12:19:53;;;;;;;5.15;2.90;;;15.70;70.60;;;;;;6251087;23;20024;-90
2021/05/15 12:22:25;;;;;;;3.30;0.90;;;15.90;68.80;;;;;;6249813;23;20027;-91
2021/05/15 12:24:53;;;;;;;2.28;0.90;;;16.00;66.90;;;;;;6249047;23;20086;-89
2021/05/15 12:27:23;;;;;;;6.78;1.30;;;15.80;68.70;;;;;;6250829;23;20431;-88
2021/05/15 12:30:03;;;;;;;3.15;1.23;;;15.70;66.40;;;;;;6251593;23;20024;-89
2021/05/15 12:32:34;;;;;;;15.98;11.40;;;15.70;67.60;;;;;;6254477;23;20094;-90
2021/05/15 12:35:06;;;;;;;3.38;1.90;;;15.50;68.50;;;;;;6249139;23;20044;-88
2021/05/15 12:37:36;;;;;;;;;;;15.40;69.00;;;;;;6249911;23;20086;-89
2021/05/15 12:40:12;;;;;;;3.17;1.10;;;15.10;70.50;;;;;;6245672;23;19935;-88
2021/05/15 12:42:39;;;;;;;1.33;1.05;;;15.10;72.90;;;;;;6245951;23;20020;-89
2021/05/15 12:45:21;;;;;;;5.32;1.38;;;15.20;71.80;;;;;;6246716;23;20026;-89
2021/05/15 12:47:48;;;;;;;7.68;4.60;;;15.10;71.70;;;;;;6245753;23;20380;-88
2021/05/15 12:50:15;;;;;;;5.35;1.88;;;15.00;70.70;;;;;;6220671;23;20035;-90
2021/05/15 12:52:42;;;;;;;3.33;1.42;;;15.30;70.00;;;;;;6245992;23;20024;-90
2021/05/15 12:55:16;;;;;;;2.67;1.10;;;15.60;68.30;;;;;;6255803;23;20111;-90
2021/05/15 12:57:55;;;;;;;2.42;1.05;;;16.10;67.30;;;;;;6263092;23;20081;-89
2021/05/15 13:00:23;;;;;;;6.80;1.83;;;16.20;64.60;;;;;;6258526;23;20020;-90
2021/05/15 13:03:02;;;;;;;2.80;1.13;;;16.00;67.70;;;;;;6224663;23;20086;-91
2021/05/15 13:05:34;;;;;;;3.70;1.00;;;15.90;67.90;;;;;;6246006;23;20090;-92
2021/05/15 13:08:09;;;;;;;1.30;0.65;;;15.60;66.10;;;;;;6246046;23;20094;-89
2021/05/15 13:10:38;;;;;;;5.40;0.90;;;15.30;68.20;;;;;;6246489;23;20024;-91
2021/05/15 13:13:05;;;;;;;2.70;1.08;;;15.00;69.90;;;;;;6245896;23;20118;-89
2021/05/15 13:15:33;;;;;;;5.75;1.35;;;14.70;70.20;;;;;;6245870;23;20322;-91